Terminal Aerodrome Forecast
Issued by NWS Charleston, WV

Current Version | Previous Version | Graphics & Text | Print | Product List | Glossary On
Versions: 1 2 3 4 5 6 7 8 9 10 11 12 13 14 15 16 17 18 19 20 21 22 23
000
FTUS41 KRLX 220520
TAFHTS
TAF
KHTS 220520Z 2206/2306 18006KT P6SM SCT100
     FM221400 16007KT P6SM SCT250
     FM222000 18009KT P6SM BKN070
     FM230000 16011G18KT P6SM OVC060
     FM230100 16011G19KT 4SM -SHRA OVC060
     FM230500 19009KT 6SM -SHRA BKN040=

USA.gov is the U.S. government's official web portal to all federal, state and local government web resources and services.